createdAt,value
2019-03-24T00:02:12.426Z,101577.00
2019-03-24T00:04:41.262Z,101568.00
2019-03-24T00:07:10.096Z,101563.00
2019-03-24T00:09:39.898Z,101561.00
2019-03-24T00:12:08.721Z,101549.00
2019-03-24T00:14:37.576Z,101545.00
2019-03-24T00:17:06.340Z,101551.00
2019-03-24T00:19:35.193Z,101549.00
2019-03-24T00:22:04.470Z,101551.00
2019-03-24T00:24:33.374Z,101553.00
2019-03-24T00:27:02.198Z,101550.00
2019-03-24T00:29:31.050Z,101552.00
2019-03-24T00:32:00.031Z,101550.00
2019-03-24T00:34:28.830Z,101544.00
2019-03-24T00:36:57.702Z,101547.00
2019-03-24T00:39:26.964Z,101540.00
2019-03-24T00:41:55.694Z,101534.00
2019-03-24T00:44:24.712Z,101538.00
2019-03-24T00:46:53.498Z,101538.00
2019-03-24T00:49:22.389Z,101537.00
2019-03-24T00:51:51.153Z,101527.00
2019-03-24T00:54:19.981Z,101530.00
2019-03-24T00:56:48.749Z,101519.00
2019-03-24T00:59:17.586Z,101528.00
2019-03-24T01:01:46.446Z,101526.00
2019-03-24T01:04:15.437Z,101523.00
2019-03-24T01:06:44.192Z,101516.00
2019-03-24T01:09:13.023Z,101519.00
2019-03-24T01:11:41.840Z,101515.00
2019-03-24T01:14:10.776Z,101514.00
2019-03-24T01:16:39.855Z,101513.00
2019-03-24T01:19:08.633Z,101515.00
2019-03-24T01:21:37.479Z,101513.00
2019-03-24T01:24:06.245Z,101505.00
2019-03-24T01:26:35.032Z,101512.00
2019-03-24T01:29:03.820Z,101506.00
2019-03-24T01:31:32.582Z,101513.00
2019-03-24T01:34:01.410Z,101506.00
2019-03-24T01:36:30.393Z,101509.00
2019-03-24T01:38:59.212Z,101510.00
2019-03-24T01:41:28.522Z,101506.00
2019-03-24T01:43:57.268Z,101508.00
2019-03-24T01:46:26.416Z,101502.00
2019-03-24T01:48:55.311Z,101500.00
2019-03-24T01:51:24.204Z,101502.00
2019-03-24T01:53:52.914Z,101495.00
2019-03-24T01:56:21.700Z,101492.00
2019-03-24T01:58:50.454Z,101492.00
2019-03-24T02:01:19.192Z,101496.00
2019-03-24T02:03:48.057Z,101484.00
2019-03-24T02:06:16.834Z,101482.00
2019-03-24T02:08:45.627Z,101480.00
2019-03-24T02:11:14.423Z,101481.00
2019-03-24T02:13:43.319Z,101484.00
2019-03-24T02:16:12.119Z,101490.00
2019-03-24T02:18:40.898Z,101483.00
2019-03-24T02:21:10.825Z,101486.00
2019-03-24T02:23:39.731Z,101492.00
2019-03-24T02:26:08.550Z,101486.00
2019-03-24T02:28:37.375Z,101476.00
2019-03-24T02:31:06.150Z,101481.00
2019-03-24T02:33:36.076Z,101470.00
2019-03-24T02:36:04.921Z,101485.00
2019-03-24T02:38:34.031Z,101482.00
2019-03-24T02:41:03.145Z,101479.00
2019-03-24T02:43:31.942Z,101471.00
2019-03-24T02:46:01.333Z,101475.00
2019-03-24T02:48:30.237Z,101464.00
2019-03-24T02:50:58.963Z,101463.00
2019-03-24T02:53:27.802Z,101464.00
2019-03-24T02:55:56.542Z,101459.00
2019-03-24T02:58:25.301Z,101457.00
2019-03-24T03:00:55.177Z,101454.00
2019-03-24T03:03:24.039Z,101450.00
2019-03-24T03:05:52.783Z,101454.00
2019-03-24T03:08:21.844Z,101447.00
2019-03-24T03:10:50.674Z,101444.00
2019-03-24T03:13:20.395Z,101442.00
2019-03-24T03:15:51.926Z,101445.00
2019-03-24T03:18:20.847Z,101448.00
2019-03-24T03:20:49.893Z,101455.00
2019-03-24T03:23:18.795Z,101445.00
2019-03-24T03:25:47.621Z,101450.00
2019-03-24T03:28:16.610Z,101443.00
2019-03-24T03:30:45.475Z,101442.00
2019-03-24T03:33:14.275Z,101443.00
2019-03-24T03:35:43.294Z,101447.00
2019-03-24T03:38:12.150Z,101456.00
2019-03-24T03:40:41.082Z,101451.00
2019-03-24T03:43:09.886Z,101449.00
2019-03-24T03:45:39.418Z,101446.00
2019-03-24T03:48:08.559Z,101444.00
2019-03-24T03:50:37.419Z,101439.00
2019-03-24T03:53:06.227Z,101442.00
2019-03-24T03:55:35.064Z,101442.00
2019-03-24T03:58:03.919Z,101445.00
2019-03-24T04:00:34.537Z,101452.00
2019-03-24T04:03:04.263Z,101453.00
2019-03-24T04:05:33.117Z,101450.00
2019-03-24T04:08:02.187Z,101452.00
2019-03-24T04:10:31.000Z,101444.00
2019-03-24T04:12:59.717Z,101446.00
2019-03-24T04:15:28.611Z,101452.00
2019-03-24T04:17:57.421Z,101446.00
2019-03-24T04:20:26.274Z,101441.00
2019-03-24T04:22:55.086Z,101446.00
2019-03-24T04:25:23.974Z,101439.00
2019-03-24T04:27:52.828Z,101440.00
2019-03-24T04:30:21.696Z,101436.00
2019-03-24T04:32:50.600Z,101431.00
2019-03-24T04:35:19.363Z,101423.00
2019-03-24T04:37:48.168Z,101426.00
2019-03-24T04:40:16.931Z,101432.00
2019-03-24T04:42:46.155Z,101431.00
2019-03-24T04:45:14.916Z,101426.00
2019-03-24T04:47:43.845Z,101429.00
2019-03-24T04:50:14.738Z,101428.00
2019-03-24T04:52:43.551Z,101430.00
2019-03-24T04:55:12.608Z,101433.00
2019-03-24T04:57:41.415Z,101433.00
2019-03-24T05:00:11.556Z,101433.00
2019-03-24T05:02:40.436Z,101425.00
2019-03-24T05:05:10.047Z,101425.00
2019-03-24T05:07:39.881Z,101434.00
2019-03-24T05:10:26.467Z,101430.00
2019-03-24T05:12:55.205Z,101428.00
2019-03-24T05:15:24.009Z,101425.00
2019-03-24T05:17:52.834Z,101429.00
2019-03-24T05:20:21.595Z,101431.00
2019-03-24T05:22:50.968Z,101433.00
2019-03-24T05:25:19.735Z,101436.00
2019-03-24T05:27:49.898Z,101439.00
2019-03-24T05:30:18.624Z,101436.00
2019-03-24T05:32:47.430Z,101433.00
2019-03-24T05:35:16.210Z,101428.00
2019-03-24T05:37:44.961Z,101431.00
2019-03-24T05:40:13.797Z,101439.00
2019-03-24T05:42:42.642Z,101439.00
2019-03-24T05:45:11.475Z,101438.00
2019-03-24T05:47:40.311Z,101443.00
2019-03-24T05:50:09.846Z,101434.00
2019-03-24T05:52:38.579Z,101433.00
2019-03-24T05:55:07.536Z,101429.00
2019-03-24T05:57:37.465Z,101434.00
2019-03-24T06:00:06.691Z,101433.00
2019-03-24T06:02:35.542Z,101436.00
2019-03-24T06:05:05.422Z,101431.00
2019-03-24T06:07:34.327Z,101429.00
2019-03-24T06:10:03.740Z,101438.00
2019-03-24T06:12:32.768Z,101436.00
2019-03-24T06:15:01.932Z,101434.00
2019-03-24T06:17:31.703Z,101439.00
2019-03-24T06:20:00.457Z,101437.00
2019-03-24T06:22:29.287Z,101442.00
2019-03-24T06:24:58.160Z,101444.00
2019-03-24T06:27:27.239Z,101435.00
2019-03-24T06:29:56.208Z,101443.00
2019-03-24T06:32:25.064Z,101436.00
2019-03-24T06:34:55.113Z,101445.00
2019-03-24T06:37:23.893Z,101439.00
2019-03-24T06:39:52.716Z,101436.00
2019-03-24T06:42:21.682Z,101439.00
2019-03-24T06:44:50.817Z,101436.00
2019-03-24T06:47:19.747Z,101435.00
2019-03-24T06:49:49.384Z,101437.00
2019-03-24T06:52:18.246Z,101435.00
2019-03-24T06:54:47.467Z,101448.00
2019-03-24T06:57:17.030Z,101436.00
2019-03-24T06:59:46.103Z,101443.00
2019-03-24T07:02:15.060Z,101444.00
2019-03-24T07:04:44.076Z,101443.00
2019-03-24T07:07:13.055Z,101453.00
2019-03-24T07:09:41.971Z,101440.00
2019-03-24T07:12:11.071Z,101444.00
2019-03-24T07:14:58.424Z,101444.00
2019-03-24T07:17:27.671Z,101448.00
2019-03-24T07:19:56.897Z,101437.00
2019-03-24T07:22:25.734Z,101450.00
2019-03-24T07:24:54.638Z,101447.00
2019-03-24T07:27:23.716Z,101448.00
2019-03-24T07:29:52.735Z,101444.00
2019-03-24T07:32:21.745Z,101441.00
2019-03-24T07:34:50.748Z,101446.00
2019-03-24T07:37:19.680Z,101441.00
2019-03-24T07:39:48.576Z,101438.00
2019-03-24T07:42:17.362Z,101446.00
2019-03-24T07:44:46.420Z,101445.00
2019-03-24T07:47:15.634Z,101442.00
2019-03-24T07:49:44.634Z,101442.00
2019-03-24T07:52:13.881Z,101439.00
2019-03-24T07:54:42.751Z,101438.00
2019-03-24T07:57:11.673Z,101435.00
2019-03-24T07:59:40.673Z,101430.00
2019-03-24T08:02:09.575Z,101433.00
2019-03-24T08:04:38.489Z,101426.00
2019-03-24T08:07:07.513Z,101428.00
2019-03-24T08:09:37.323Z,101432.00
2019-03-24T08:12:06.562Z,101423.00
2019-03-24T08:14:35.888Z,101426.00
2019-03-24T08:17:05.273Z,101411.00
2019-03-24T08:19:34.413Z,101415.00
2019-03-24T08:22:03.788Z,101423.00
2019-03-24T08:24:32.664Z,101410.00
2019-03-24T08:27:02.170Z,101414.00
2019-03-24T08:29:31.294Z,101419.00
2019-03-24T08:32:00.127Z,101398.00
2019-03-24T08:34:28.880Z,101399.00
2019-03-24T08:36:57.836Z,101398.00
2019-03-24T08:39:26.989Z,101391.00
2019-03-24T08:41:57.901Z,101386.00
2019-03-24T08:44:27.059Z,101382.00
2019-03-24T08:46:56.037Z,101381.00
2019-03-24T08:49:24.911Z,101380.00
2019-03-24T08:51:53.871Z,101367.00
2019-03-24T08:54:23.509Z,101361.00
2019-03-24T08:56:52.432Z,101359.00
2019-03-24T08:59:21.292Z,101365.00
2019-03-24T09:01:50.603Z,101358.00
2019-03-24T09:04:22.095Z,101352.00
2019-03-24T09:06:51.264Z,101361.00
2019-03-24T09:09:20.235Z,101358.00
2019-03-24T09:11:49.335Z,101359.00
2019-03-24T09:14:18.269Z,101359.00
2019-03-24T09:16:47.556Z,101347.00
2019-03-24T09:19:16.417Z,101352.00
2019-03-24T09:21:45.280Z,101356.00
2019-03-24T09:24:15.017Z,101358.00
2019-03-24T09:26:43.930Z,101352.00
2019-03-24T09:29:14.104Z,101350.00
2019-03-24T09:31:43.115Z,101356.00
2019-03-24T09:34:12.117Z,101346.00
2019-03-24T09:36:41.210Z,101337.00
2019-03-24T09:39:10.751Z,101343.00
2019-03-24T09:41:40.539Z,101344.00
2019-03-24T09:44:10.664Z,101340.00
2019-03-24T09:46:39.720Z,101337.00
2019-03-24T09:49:08.752Z,101335.00
2019-03-24T09:51:37.927Z,101338.00
2019-03-24T09:54:06.760Z,101330.00
2019-03-24T09:56:36.925Z,101323.00
2019-03-24T09:59:06.489Z,101318.00
2019-03-24T10:01:37.944Z,101318.00
2019-03-24T10:04:18.829Z,101310.00
2019-03-24T10:06:50.151Z,101313.00
2019-03-24T10:09:22.611Z,101314.00
2019-03-24T10:11:55.578Z,101306.00
2019-03-24T10:14:25.173Z,101305.00
2019-03-24T10:16:55.714Z,101301.00
2019-03-24T10:19:24.939Z,101292.00
2019-03-24T10:21:55.084Z,101284.00
2019-03-24T10:24:25.416Z,101293.00
2019-03-24T10:27:01.734Z,101280.00
2019-03-24T10:29:38.846Z,101291.00
2019-03-24T10:32:09.269Z,101280.00
2019-03-24T10:34:38.500Z,101286.00
2019-03-24T10:37:09.688Z,101281.00
2019-03-24T10:39:38.787Z,101281.00
2019-03-24T10:42:09.019Z,101279.00
2019-03-24T10:44:42.552Z,101269.00
2019-03-24T10:47:11.737Z,101287.00
2019-03-24T10:49:42.942Z,101267.00
2019-03-24T10:52:12.482Z,101265.00
2019-03-24T10:54:41.869Z,101265.00
2019-03-24T10:57:11.148Z,101267.00
2019-03-24T10:59:41.226Z,101269.00
2019-03-24T11:02:10.372Z,101260.00
2019-03-24T11:04:39.982Z,101255.00
2019-03-24T11:07:08.955Z,101265.00
2019-03-24T11:09:37.852Z,101258.00
2019-03-24T11:12:06.730Z,101251.00
2019-03-24T11:14:37.803Z,101253.00
2019-03-24T11:17:08.545Z,101242.00
2019-03-24T11:19:38.753Z,101239.00
2019-03-24T11:22:07.630Z,101241.00
2019-03-24T11:24:36.793Z,101233.00
2019-03-24T11:27:05.923Z,101230.00
2019-03-24T11:29:35.899Z,101236.00
2019-03-24T11:32:05.167Z,101233.00
2019-03-24T11:34:34.215Z,101239.00
2019-03-24T11:37:03.492Z,101233.00
2019-03-24T11:39:32.586Z,101242.00
2019-03-24T11:42:01.614Z,101250.00
2019-03-24T11:44:30.596Z,101239.00
2019-03-24T11:46:59.656Z,101235.00
2019-03-24T11:49:28.682Z,101214.00
2019-03-24T11:51:57.844Z,101227.00
2019-03-24T11:54:26.974Z,101231.00
2019-03-24T11:56:56.412Z,101229.00
2019-03-24T11:59:25.594Z,101227.00
2019-03-24T12:01:54.557Z,101222.00
2019-03-24T12:04:23.719Z,101217.00
2019-03-24T12:06:52.723Z,101220.00
2019-03-24T12:09:22.062Z,101216.00
2019-03-24T12:11:52.037Z,101210.00
2019-03-24T12:14:21.542Z,101210.00
2019-03-24T12:16:50.767Z,101203.00
2019-03-24T12:19:20.084Z,101205.00
2019-03-24T12:21:49.149Z,101204.00
2019-03-24T12:24:18.346Z,101200.00
2019-03-24T12:26:47.546Z,101198.00
2019-03-24T12:29:16.859Z,101204.00
2019-03-24T12:31:45.932Z,101200.00
2019-03-24T12:34:15.101Z,101191.00
2019-03-24T12:36:44.189Z,101190.00
2019-03-24T12:39:13.828Z,101187.00
2019-03-24T12:41:42.755Z,101186.00
2019-03-24T12:44:11.950Z,101182.00
2019-03-24T12:46:41.291Z,101193.00
2019-03-24T12:49:17.116Z,101182.00
2019-03-24T12:51:46.207Z,101189.00
2019-03-24T12:54:15.991Z,101186.00
2019-03-24T12:56:45.115Z,101177.00
2019-03-24T12:59:14.518Z,101187.00
2019-03-24T13:01:43.524Z,101174.00
2019-03-24T13:04:12.586Z,101168.00
2019-03-24T13:06:41.466Z,101180.00
2019-03-24T13:09:11.386Z,101173.00
2019-03-24T13:11:40.404Z,101173.00
2019-03-24T13:14:09.421Z,101169.00
2019-03-24T13:16:38.438Z,101172.00
2019-03-24T13:19:07.369Z,101159.00
2019-03-24T13:21:36.334Z,101169.00
2019-03-24T13:24:05.427Z,101159.00
2019-03-24T13:26:34.484Z,101163.00
2019-03-24T13:29:04.707Z,101160.00
2019-03-24T13:31:33.706Z,101153.00
2019-03-24T13:34:03.111Z,101149.00
2019-03-24T13:36:32.058Z,101157.00
2019-03-24T13:39:01.151Z,101144.00
2019-03-24T13:41:30.425Z,101140.00
2019-03-24T13:43:59.375Z,101135.00
2019-03-24T13:46:28.319Z,101139.00
2019-03-24T13:48:57.508Z,101131.00
2019-03-24T13:51:26.375Z,101134.00
2019-03-24T13:53:55.335Z,101132.00
2019-03-24T13:56:24.577Z,101088.00
2019-03-24T13:58:53.663Z,101142.00
2019-03-24T14:01:22.562Z,101139.00
2019-03-24T14:03:51.625Z,101135.00
2019-03-24T14:06:20.586Z,101142.00
2019-03-24T14:08:49.702Z,101134.00
2019-03-24T14:11:18.718Z,101137.00
2019-03-24T14:13:47.759Z,101130.00
2019-03-24T14:16:16.809Z,101136.00
2019-03-24T14:18:45.726Z,101125.00
2019-03-24T14:21:14.786Z,101131.00
2019-03-24T14:23:43.850Z,101074.00
2019-03-24T14:26:13.867Z,101136.00
2019-03-24T14:28:43.519Z,101130.00
2019-03-24T14:31:12.588Z,101136.00
2019-03-24T14:33:43.118Z,101150.00
2019-03-24T14:36:12.123Z,101128.00
2019-03-24T14:38:41.097Z,101134.00
2019-03-24T14:41:10.168Z,101138.00
2019-03-24T14:43:40.042Z,101136.00
2019-03-24T14:46:09.057Z,101140.00
2019-03-24T14:48:37.982Z,101137.00
2019-03-24T14:51:07.534Z,101128.00
2019-03-24T14:53:36.869Z,101137.00
2019-03-24T14:56:05.898Z,101133.00
2019-03-24T14:58:34.958Z,101136.00
2019-03-24T15:01:03.969Z,101137.00
2019-03-24T15:03:32.918Z,101134.00
2019-03-24T15:06:01.984Z,101132.00
2019-03-24T15:08:30.960Z,101137.00
2019-03-24T15:10:59.965Z,101141.00
2019-03-24T15:13:28.839Z,101133.00
2019-03-24T15:15:57.823Z,101138.00
2019-03-24T15:18:27.355Z,101133.00
2019-03-24T15:21:05.150Z,101134.00
2019-03-24T15:23:27.008Z,101126.00
2019-03-24T15:25:56.004Z,101138.00
2019-03-24T15:28:25.136Z,101132.00
2019-03-24T15:30:54.904Z,101130.00
2019-03-24T15:33:23.964Z,101128.00
2019-03-24T15:35:53.041Z,101132.00
2019-03-24T15:38:22.158Z,101130.00
2019-03-24T15:40:51.086Z,101133.00
2019-03-24T15:43:19.926Z,101146.00
2019-03-24T15:45:48.851Z,101143.00
2019-03-24T15:48:18.556Z,101141.00
2019-03-24T15:50:47.694Z,101146.00
2019-03-24T15:53:16.632Z,101144.00
2019-03-24T15:55:45.576Z,101144.00
2019-03-24T15:58:14.560Z,101149.00
2019-03-24T16:00:48.237Z,101147.00
2019-03-24T16:03:17.560Z,101143.00
2019-03-24T16:05:46.636Z,101134.00
2019-03-24T16:08:15.576Z,101144.00
2019-03-24T16:10:44.506Z,101135.00
2019-03-24T16:13:13.399Z,101145.00
2019-03-24T16:15:42.334Z,101138.00
2019-03-24T16:18:11.320Z,101136.00
2019-03-24T16:20:40.380Z,101130.00
2019-03-24T16:23:09.460Z,101138.00
2019-03-24T16:25:38.524Z,101135.00
2019-03-24T16:28:07.698Z,101132.00
2019-03-24T16:30:36.734Z,101129.00
2019-03-24T16:33:06.120Z,101132.00
2019-03-24T16:35:35.128Z,101118.00
2019-03-24T16:38:04.209Z,101123.00
2019-03-24T16:40:33.178Z,101115.00
2019-03-24T16:43:02.099Z,101113.00
2019-03-24T16:45:31.161Z,101124.00
2019-03-24T16:48:00.117Z,101122.00
2019-03-24T16:50:28.961Z,101123.00
2019-03-24T16:52:57.937Z,101119.00
2019-03-24T16:55:26.910Z,101106.00
2019-03-24T16:57:55.938Z,101110.00
2019-03-24T17:00:24.986Z,101105.00
2019-03-24T17:02:54.023Z,101102.00
2019-03-24T17:05:23.071Z,101105.00
2019-03-24T17:07:52.118Z,101112.00
2019-03-24T17:10:21.230Z,101110.00
2019-03-24T17:12:51.312Z,101102.00
2019-03-24T17:15:20.366Z,101099.00
2019-03-24T17:17:49.413Z,101096.00
2019-03-24T17:20:18.483Z,101114.00
2019-03-24T17:22:47.488Z,101110.00
2019-03-24T17:25:16.518Z,101116.00
2019-03-24T17:27:45.584Z,101116.00
2019-03-24T17:30:15.178Z,101109.00
2019-03-24T17:32:44.136Z,101119.00
2019-03-24T17:35:13.257Z,101118.00
2019-03-24T17:37:42.169Z,101125.00
2019-03-24T17:40:12.602Z,101122.00
2019-03-24T17:42:41.848Z,101120.00
2019-03-24T17:45:11.469Z,101120.00
2019-03-24T17:47:40.444Z,101133.00
2019-03-24T17:50:11.988Z,101122.00
2019-03-24T17:52:40.607Z,101123.00
2019-03-24T17:55:09.837Z,101120.00
2019-03-24T17:57:38.774Z,101125.00
2019-03-24T18:00:11.586Z,101125.00
2019-03-24T18:02:40.683Z,101125.00
2019-03-24T18:05:10.031Z,101134.00
2019-03-24T18:07:39.115Z,101129.00
2019-03-24T18:10:10.449Z,101126.00
2019-03-24T18:12:39.609Z,101122.00
2019-03-24T18:15:09.171Z,101134.00
2019-03-24T18:17:38.383Z,101129.00
2019-03-24T18:20:08.546Z,101124.00
2019-03-24T18:22:37.841Z,101125.00
2019-03-24T18:25:08.839Z,101123.00
2019-03-24T18:27:37.911Z,101125.00
2019-03-24T18:30:09.040Z,101129.00
2019-03-24T18:32:38.583Z,101130.00
2019-03-24T18:35:08.656Z,101133.00
2019-03-24T18:37:38.090Z,101128.00
2019-03-24T18:40:08.966Z,101136.00
2019-03-24T18:42:38.511Z,101136.00
2019-03-24T18:45:09.171Z,101137.00
2019-03-24T18:47:39.447Z,101140.00
2019-03-24T18:50:09.501Z,101138.00
2019-03-24T18:52:38.644Z,101134.00
2019-03-24T18:55:09.182Z,101134.00
2019-03-24T18:57:38.223Z,101135.00
2019-03-24T19:00:07.736Z,101135.00
2019-03-24T19:02:36.956Z,101131.00
2019-03-24T19:05:06.638Z,101132.00
2019-03-24T19:07:35.703Z,101134.00
2019-03-24T19:10:05.594Z,101133.00
2019-03-24T19:12:34.911Z,101136.00
2019-03-24T19:15:04.419Z,101135.00
2019-03-24T19:17:33.642Z,101138.00
2019-03-24T19:20:02.699Z,101134.00
2019-03-24T19:22:33.733Z,101130.00
2019-03-24T19:25:02.833Z,101132.00
2019-03-24T19:27:31.927Z,101130.00
2019-03-24T19:30:01.035Z,101132.00
2019-03-24T19:32:31.135Z,101130.00
2019-03-24T19:35:00.419Z,101135.00
2019-03-24T19:37:29.791Z,101137.00
2019-03-24T19:39:58.993Z,101129.00
2019-03-24T19:42:28.177Z,101139.00
2019-03-24T19:44:57.367Z,101136.00
2019-03-24T19:48:19.604Z,101135.00
2019-03-24T19:55:03.172Z,101143.00
2019-03-24T19:57:32.222Z,101137.00
2019-03-24T20:00:01.369Z,101143.00
2019-03-24T20:02:30.484Z,101124.00
2019-03-24T20:05:00.366Z,101132.00
2019-03-24T20:07:29.616Z,101129.00
2019-03-24T20:09:58.867Z,101134.00
2019-03-24T20:12:27.971Z,101138.00
2019-03-24T20:14:57.198Z,101126.00
2019-03-24T20:17:26.403Z,101137.00
2019-03-24T20:19:55.693Z,101135.00
2019-03-24T20:22:25.219Z,101134.00
2019-03-24T20:24:54.200Z,101126.00
2019-03-24T20:27:25.888Z,101127.00
2019-03-24T20:29:55.879Z,101128.00
2019-03-24T20:32:24.976Z,101124.00
2019-03-24T20:34:53.894Z,101122.00
2019-03-24T20:37:22.929Z,101124.00
2019-03-24T20:39:52.020Z,101121.00
2019-03-24T20:42:21.311Z,101120.00
2019-03-24T20:44:50.382Z,101119.00
2019-03-24T20:47:19.439Z,101123.00
2019-03-24T20:49:48.846Z,101120.00
2019-03-24T20:52:18.011Z,101115.00
2019-03-24T20:54:48.878Z,101117.00
2019-03-24T20:57:18.147Z,101112.00
2019-03-24T20:59:47.462Z,101116.00
2019-03-24T21:02:16.494Z,101124.00
2019-03-24T21:04:45.634Z,101112.00
2019-03-24T21:07:14.824Z,101117.00
2019-03-24T21:09:46.454Z,101116.00
2019-03-24T21:12:14.800Z,101111.00
2019-03-24T21:14:44.036Z,101106.00
2019-03-24T21:17:12.969Z,101118.00
2019-03-24T21:19:42.029Z,101115.00
2019-03-24T21:22:12.404Z,101117.00
2019-03-24T21:24:41.521Z,101109.00
2019-03-24T21:27:10.464Z,101108.00
2019-03-24T21:29:39.438Z,101104.00
2019-03-24T21:32:08.729Z,101108.00
2019-03-24T21:34:37.856Z,101113.00
2019-03-24T21:37:08.889Z,101104.00
2019-03-24T21:39:38.843Z,101105.00
2019-03-24T21:42:08.049Z,101096.00
2019-03-24T21:44:37.022Z,101093.00
2019-03-24T21:47:06.009Z,101102.00
2019-03-24T21:49:35.134Z,101096.00
2019-03-24T21:52:04.271Z,101096.00
2019-03-24T21:54:33.270Z,101103.00
2019-03-24T21:57:02.203Z,101096.00
2019-03-24T21:59:31.136Z,101109.00
2019-03-24T22:02:00.100Z,101101.00
2019-03-24T22:04:29.062Z,101102.00
2019-03-24T22:06:58.295Z,101107.00
2019-03-24T22:09:28.161Z,101103.00
2019-03-24T22:11:57.063Z,101100.00
2019-03-24T22:14:26.215Z,101091.00
2019-03-24T22:16:55.348Z,101113.00
2019-03-24T22:19:24.365Z,101114.00
2019-03-24T22:21:53.201Z,101100.00
2019-03-24T22:24:22.190Z,101106.00
2019-03-24T22:26:51.219Z,101102.00
2019-03-24T22:29:20.273Z,101100.00
2019-03-24T22:31:49.537Z,101103.00
2019-03-24T22:34:18.461Z,101101.00
2019-03-24T22:36:47.330Z,101095.00
2019-03-24T22:39:16.613Z,101099.00
2019-03-24T22:41:45.522Z,101092.00
2019-03-24T22:44:14.940Z,101095.00
2019-03-24T22:46:50.281Z,101081.00
2019-03-24T22:49:19.120Z,101082.00
2019-03-24T22:51:48.885Z,101085.00
2019-03-24T22:54:17.911Z,101083.00
2019-03-24T22:56:46.737Z,101086.00
2019-03-24T22:59:15.995Z,101068.00
2019-03-24T23:01:44.988Z,101073.00
2019-03-24T23:04:14.513Z,101079.00
2019-03-24T23:06:43.525Z,101072.00
2019-03-24T23:09:12.465Z,101074.00
2019-03-24T23:11:41.455Z,101074.00
2019-03-24T23:14:10.458Z,101078.00
2019-03-24T23:16:39.499Z,101074.00
2019-03-24T23:19:08.633Z,101070.00
2019-03-24T23:21:40.897Z,101072.00
2019-03-24T23:24:15.588Z,101064.00
2019-03-24T23:26:43.240Z,101067.00
2019-03-24T23:29:12.892Z,101055.00
2019-03-24T23:31:43.864Z,101057.00
2019-03-24T23:34:13.646Z,101060.00
2019-03-24T23:36:43.970Z,101062.00
2019-03-24T23:39:18.397Z,101059.00
2019-03-24T23:44:51.543Z,101050.00
2019-03-24T23:47:29.363Z,101049.00
2019-03-24T23:50:05.495Z,101047.00
2019-03-24T23:52:37.992Z,101049.00
2019-03-24T23:55:08.368Z,101043.00
2019-03-24T23:57:37.375Z,101057.00
